createdAt,value
2018-11-21T00:00:37.213Z,77.17
2018-11-21T00:03:06.833Z,77.07
2018-11-21T00:05:36.379Z,78.97
2018-11-21T00:08:06.191Z,77.40
2018-11-21T00:10:35.959Z,68.93
2018-11-21T00:13:05.998Z,74.53
2018-11-21T00:15:35.626Z,68.50
2018-11-21T00:18:06.040Z,70.13
2018-11-21T00:20:35.946Z,64.73
2018-11-21T00:23:05.941Z,58.07
2018-11-21T00:25:35.761Z,55.50
2018-11-21T00:28:05.667Z,42.40
2018-11-21T00:30:35.507Z,47.83
2018-11-21T00:33:05.121Z,57.93
2018-11-21T00:35:34.828Z,57.07
2018-11-21T00:38:04.433Z,48.23
2018-11-21T00:40:34.154Z,51.50
2018-11-21T00:43:03.814Z,49.70
2018-11-21T00:45:33.486Z,39.27
2018-11-21T00:48:03.339Z,46.80
2018-11-21T00:50:32.943Z,41.60
2018-11-21T00:53:02.627Z,44.27
2018-11-21T00:55:32.209Z,42.77
2018-11-21T00:58:02.289Z,47.87
2018-11-21T01:00:31.921Z,56.77
2018-11-21T01:03:01.554Z,40.03
2018-11-21T01:05:31.162Z,54.27
2018-11-21T01:08:00.826Z,63.57
2018-11-21T01:10:30.471Z,53.00
2018-11-21T01:13:00.085Z,64.87
2018-11-21T01:15:29.958Z,65.23
2018-11-21T01:17:59.527Z,60.27
2018-11-21T01:20:29.126Z,60.73
2018-11-21T01:22:58.844Z,77.37
2018-11-21T01:25:28.586Z,72.47
2018-11-21T01:27:58.245Z,78.77
2018-11-21T01:30:28.019Z,60.27
2018-11-21T01:32:57.672Z,53.70
2018-11-21T01:35:27.301Z,44.27
2018-11-21T01:37:56.825Z,48.87
2018-11-21T01:40:26.500Z,40.83
2018-11-21T01:42:56.249Z,40.83
2018-11-21T01:45:25.963Z,36.90
2018-11-21T01:47:55.624Z,41.53
2018-11-21T01:50:25.180Z,78.17
2018-11-21T01:52:54.807Z,88.50
2018-11-21T01:55:24.324Z,108.57
2018-11-21T01:57:53.975Z,92.43
2018-11-21T02:00:23.551Z,106.73
2018-11-21T02:02:53.205Z,88.07
2018-11-21T02:05:22.805Z,97.60
2018-11-21T02:07:52.689Z,87.83
2018-11-21T02:10:22.332Z,91.10
2018-11-21T02:12:51.974Z,125.53
2018-11-21T02:15:21.614Z,125.70
2018-11-21T02:17:51.366Z,135.73
2018-11-21T02:20:20.990Z,122.47
2018-11-21T02:22:50.617Z,95.73
2018-11-21T02:25:20.277Z,120.10
2018-11-21T02:27:49.933Z,124.83
2018-11-21T02:30:19.686Z,102.10
2018-11-21T02:32:49.402Z,109.60
2018-11-21T02:35:19.031Z,107.20
2018-11-21T02:37:48.690Z,96.10
2018-11-21T02:40:18.413Z,120.10
2018-11-21T02:42:48.064Z,99.63
2018-11-21T02:45:17.670Z,93.77
2018-11-21T02:47:47.389Z,115.73
2018-11-21T02:50:17.012Z,129.67
2018-11-21T02:52:46.618Z,126.27
2018-11-21T02:55:16.175Z,104.03
2018-11-21T02:57:45.973Z,119.87
2018-11-21T03:00:26.377Z,126.93
2018-11-21T03:02:56.089Z,113.50
2018-11-21T03:05:25.663Z,143.63
2018-11-21T03:07:56.618Z,122.13
2018-11-21T03:10:26.766Z,130.20
2018-11-21T03:12:56.743Z,127.40
2018-11-21T03:15:26.423Z,127.03
2018-11-21T03:17:56.203Z,134.13
2018-11-21T03:20:25.820Z,114.13
2018-11-21T03:22:55.453Z,128.90
2018-11-21T03:25:25.335Z,114.70
2018-11-21T03:27:54.989Z,115.20
2018-11-21T03:30:24.700Z,105.00
2018-11-21T03:32:54.477Z,85.27
2018-11-21T03:35:24.266Z,73.63
2018-11-21T03:37:53.991Z,93.17
2018-11-21T03:40:23.651Z,81.83
2018-11-21T03:42:53.292Z,80.27
2018-11-21T03:45:22.880Z,82.83
2018-11-21T03:47:52.475Z,83.03
2018-11-21T03:50:23.910Z,83.90
2018-11-21T03:52:53.535Z,83.53
2018-11-21T03:55:23.108Z,76.30
2018-11-21T03:57:53.034Z,75.87
2018-11-21T04:00:22.690Z,70.37
2018-11-21T04:02:52.519Z,74.70
2018-11-21T04:05:22.175Z,71.93
2018-11-21T04:07:51.845Z,68.67
2018-11-21T04:10:21.481Z,74.00
2018-11-21T04:12:51.151Z,73.67
2018-11-21T04:15:20.841Z,68.63
2018-11-21T04:17:50.668Z,68.27
2018-11-21T04:20:20.383Z,59.63
2018-11-21T04:22:50.225Z,62.33
2018-11-21T04:25:19.858Z,58.67
2018-11-21T04:27:49.411Z,61.20
2018-11-21T04:30:19.071Z,54.77
2018-11-21T04:32:48.663Z,52.30
2018-11-21T04:35:18.282Z,53.17
2018-11-21T04:37:47.954Z,57.00
2018-11-21T04:40:17.871Z,50.13
2018-11-21T04:42:47.524Z,55.20
2018-11-21T04:45:17.075Z,53.97
2018-11-21T04:47:46.820Z,59.57
2018-11-21T04:50:16.408Z,60.10
2018-11-21T04:52:46.023Z,60.10
2018-11-21T04:55:15.762Z,54.43
2018-11-21T04:57:45.775Z,56.73
2018-11-21T05:00:15.679Z,58.67
2018-11-21T05:02:45.534Z,65.63
2018-11-21T05:05:15.258Z,64.23
2018-11-21T05:07:44.941Z,56.87
2018-11-21T05:10:14.603Z,57.60
2018-11-21T05:12:44.209Z,65.37
2018-11-21T05:15:16.326Z,73.13
2018-11-21T05:17:46.079Z,72.53
2018-11-21T05:20:15.680Z,64.53
2018-11-21T05:22:45.276Z,64.40
2018-11-21T05:25:14.970Z,70.23
2018-11-21T05:27:44.553Z,76.80
2018-11-21T05:30:14.375Z,76.10
2018-11-21T05:32:44.255Z,71.23
2018-11-21T05:35:13.849Z,63.97
2018-11-21T05:37:43.514Z,73.20
2018-11-21T05:40:13.173Z,58.73
2018-11-21T05:42:42.779Z,74.03
2018-11-21T05:45:12.663Z,62.17
2018-11-21T05:47:42.328Z,56.30
2018-11-21T05:50:13.314Z,66.83
2018-11-21T05:52:42.916Z,59.80
2018-11-21T05:55:12.555Z,62.40
2018-11-21T05:57:42.098Z,58.40
2018-11-21T06:00:13.448Z,80.97
2018-11-21T06:02:43.119Z,60.90
2018-11-21T06:05:13.201Z,67.07
2018-11-21T06:07:42.836Z,60.90
2018-11-21T06:10:14.045Z,71.40
2018-11-21T06:12:44.279Z,69.40
2018-11-21T06:15:14.012Z,77.67
2018-11-21T06:17:48.033Z,83.23
2018-11-21T06:20:14.629Z,84.93
2018-11-21T06:22:45.726Z,95.57
2018-11-21T06:25:15.428Z,88.57
2018-11-21T06:27:45.147Z,80.00
2018-11-21T06:30:15.410Z,89.43
2018-11-21T06:32:45.273Z,91.17
2018-11-21T06:35:14.886Z,96.80
2018-11-21T06:37:44.467Z,102.60
2018-11-21T06:40:15.496Z,83.70
2018-11-21T06:42:58.507Z,104.77
2018-11-21T06:45:29.354Z,100.83
2018-11-21T06:47:58.944Z,85.93
2018-11-21T06:50:28.610Z,92.60
2018-11-21T06:52:58.929Z,72.97
2018-11-21T06:55:28.708Z,90.00
2018-11-21T06:57:58.354Z,100.30
2018-11-21T07:00:28.021Z,86.30
2018-11-21T07:02:57.985Z,115.30
2018-11-21T07:05:27.752Z,137.73
2018-11-21T07:08:00.622Z,109.27
2018-11-21T07:10:30.918Z,91.03
2018-11-21T07:13:00.625Z,98.77
2018-11-21T07:15:30.248Z,83.67
2018-11-21T07:17:59.914Z,65.70
2018-11-21T07:20:29.589Z,62.43
2018-11-21T07:22:59.332Z,70.83
2018-11-21T07:25:29.068Z,69.10
2018-11-21T07:27:58.707Z,56.53
2018-11-21T07:30:28.434Z,55.60
2018-11-21T07:32:58.118Z,46.50
2018-11-21T07:35:27.751Z,47.47
2018-11-21T07:37:57.452Z,46.87
2018-11-21T07:40:27.044Z,44.90
2018-11-21T07:42:56.622Z,44.57
2018-11-21T07:45:26.270Z,48.37
2018-11-21T07:47:55.905Z,48.43
2018-11-21T07:50:25.575Z,43.53
2018-11-21T07:52:55.267Z,47.17
2018-11-21T07:55:24.877Z,43.43
2018-11-21T07:57:56.134Z,54.47
2018-11-21T08:01:05.420Z,41.13
2018-11-21T08:03:40.339Z,52.63
2018-11-21T08:06:18.367Z,51.23
2018-11-21T08:09:07.068Z,53.60
2018-11-21T08:12:01.590Z,60.10
2018-11-21T08:14:53.231Z,144.37
2018-11-21T08:17:47.631Z,67.37
2018-11-21T08:20:34.683Z,47.50
2018-11-21T08:23:21.713Z,43.60
2018-11-21T08:26:16.778Z,47.70
2018-11-21T08:28:46.428Z,50.40
2018-11-21T08:31:16.150Z,54.63
2018-11-21T08:33:45.795Z,55.87
2018-11-21T08:36:15.458Z,54.80
2018-11-21T08:38:45.121Z,50.07
2018-11-21T08:41:15.131Z,53.70
2018-11-21T08:43:44.809Z,49.60
2018-11-21T08:46:14.443Z,48.93
2018-11-21T08:48:44.088Z,55.13
2018-11-21T08:51:13.923Z,48.50
2018-11-21T08:53:43.618Z,63.73
2018-11-21T08:56:13.563Z,48.53
2018-11-21T08:58:43.135Z,49.73
2018-11-21T09:01:12.753Z,47.20
2018-11-21T09:03:42.604Z,63.40
2018-11-21T09:06:12.279Z,50.73
2018-11-21T09:08:41.857Z,46.40
2018-11-21T09:11:11.979Z,65.70
2018-11-21T09:13:41.584Z,51.90
2018-11-21T09:16:11.202Z,52.87
2018-11-21T09:18:41.244Z,55.30
2018-11-21T09:21:10.818Z,50.57
2018-11-21T09:23:40.565Z,53.10
2018-11-21T09:26:10.433Z,48.03
2018-11-21T09:28:40.093Z,56.83
2018-11-21T09:31:09.730Z,54.13
2018-11-21T09:33:39.313Z,54.40
2018-11-21T09:36:08.975Z,49.53
2018-11-21T09:38:38.964Z,60.80
2018-11-21T09:41:08.673Z,51.23
2018-11-21T09:43:38.280Z,56.30
2018-11-21T09:46:07.924Z,52.33
2018-11-21T09:48:37.565Z,44.70
2018-11-21T09:51:07.315Z,49.93
2018-11-21T09:53:37.125Z,52.70
2018-11-21T09:56:07.003Z,49.23
2018-11-21T09:58:36.631Z,46.27
2018-11-21T10:01:42.568Z,53.60
2018-11-21T10:04:12.328Z,49.20
2018-11-21T10:06:43.799Z,52.20
2018-11-21T10:09:25.036Z,48.70
2018-11-21T10:11:54.830Z,46.93
2018-11-21T10:14:24.429Z,49.90
2018-11-21T10:16:54.071Z,55.33
2018-11-21T10:19:23.746Z,52.47
2018-11-21T10:21:53.426Z,49.77
2018-11-21T10:24:23.056Z,49.20
2018-11-21T10:26:52.990Z,50.80
2018-11-21T10:29:22.890Z,46.63
2018-11-21T10:31:52.516Z,48.50
2018-11-21T10:34:22.175Z,48.20
2018-11-21T10:36:51.815Z,46.30
2018-11-21T10:39:21.483Z,54.10
2018-11-21T10:41:51.195Z,53.43
2018-11-21T10:44:21.014Z,43.40
2018-11-21T10:46:50.746Z,52.57
2018-11-21T10:49:20.466Z,44.60
2018-11-21T10:51:50.167Z,49.37
2018-11-21T10:54:19.918Z,46.80
2018-11-21T10:56:49.524Z,49.80
2018-11-21T10:59:19.395Z,49.80
2018-11-21T11:02:06.994Z,52.70
2018-11-21T11:04:54.431Z,48.23
2018-11-21T11:07:41.769Z,54.23
2018-11-21T11:10:40.823Z,49.70
2018-11-21T11:13:35.392Z,48.67
2018-11-21T11:16:21.392Z,49.97
2018-11-21T11:19:08.779Z,55.37
2018-11-21T11:22:06.585Z,60.43
2018-11-21T11:24:53.763Z,52.47
2018-11-21T11:27:49.891Z,43.10
2018-11-21T11:30:53.922Z,48.47
2018-11-21T11:33:38.360Z,49.70
2018-11-21T11:36:39.160Z,54.10
2018-11-21T11:39:43.924Z,55.57
2018-11-21T11:42:29.906Z,48.30
2018-11-21T11:45:17.131Z,49.00
2018-11-21T11:48:04.728Z,56.63
2018-11-21T11:50:48.152Z,39.63
2018-11-21T11:53:36.988Z,47.77
2018-11-21T11:56:28.439Z,46.30
2018-11-21T11:59:17.327Z,44.03
2018-11-21T12:02:13.159Z,46.17
2018-11-21T12:05:04.450Z,43.20
2018-11-21T12:07:57.277Z,39.40
2018-11-21T12:10:45.997Z,48.60
2018-11-21T12:13:33.492Z,42.77
2018-11-21T12:16:29.011Z,43.43
2018-11-21T12:19:10.701Z,46.17
2018-11-21T12:22:05.267Z,39.40
2018-11-21T12:24:57.711Z,50.50
2018-11-21T12:27:45.048Z,49.13
2018-11-21T12:30:24.330Z,47.73
2018-11-21T12:33:30.349Z,48.37
2018-11-21T12:36:18.074Z,55.43
2018-11-21T12:39:18.509Z,46.30
2018-11-21T12:42:05.830Z,44.20
2018-11-21T12:45:06.680Z,46.87
2018-11-21T12:48:13.957Z,42.27
2018-11-21T12:50:57.292Z,44.63
2018-11-21T12:54:01.018Z,46.53
2018-11-21T12:56:49.937Z,40.63
2018-11-21T12:59:41.977Z,50.03
2018-11-21T13:02:34.754Z,42.83
2018-11-21T13:05:19.063Z,41.77
2018-11-21T13:08:10.700Z,44.80
2018-11-21T13:10:58.105Z,43.67
2018-11-21T13:13:58.807Z,50.97
2018-11-21T13:16:38.096Z,48.00
2018-11-21T13:19:25.749Z,44.37
2018-11-21T13:22:02.361Z,45.80
2018-11-21T13:24:48.081Z,43.70
2018-11-21T13:27:42.537Z,42.20
2018-11-21T13:30:50.375Z,50.20
2018-11-21T13:33:44.880Z,44.30
2018-11-21T13:36:48.767Z,49.97
2018-11-21T13:39:55.765Z,47.37
2018-11-21T13:42:50.273Z,48.77
2018-11-21T13:45:54.090Z,49.30
2018-11-21T13:48:37.588Z,46.53
2018-11-21T13:51:44.374Z,48.40
2018-11-21T13:54:35.887Z,40.73
2018-11-21T13:57:05.711Z,45.57
2018-11-21T13:59:35.512Z,39.37
2018-11-21T14:02:05.491Z,53.57
2018-11-21T14:04:35.233Z,44.53
2018-11-21T14:07:04.925Z,40.70
2018-11-21T14:09:34.603Z,45.00
2018-11-21T14:12:04.852Z,44.43
2018-11-21T14:14:34.646Z,48.13
2018-11-21T14:17:04.276Z,54.53
2018-11-21T14:19:34.222Z,53.20
2018-11-21T14:22:03.930Z,46.50
2018-11-21T14:24:33.584Z,49.53
2018-11-21T14:27:03.317Z,44.00
2018-11-21T14:29:33.052Z,44.37
2018-11-21T14:32:02.800Z,42.00
2018-11-21T14:34:32.491Z,43.30
2018-11-21T14:37:02.418Z,47.33
2018-11-21T14:39:31.983Z,44.23
2018-11-21T14:42:01.639Z,50.63
2018-11-21T14:44:31.351Z,43.33
2018-11-21T14:47:01.863Z,41.57
2018-11-21T14:49:31.820Z,40.37
2018-11-21T14:52:01.829Z,54.30
2018-11-21T14:54:31.458Z,45.00
2018-11-21T14:57:02.017Z,43.60
2018-11-21T14:59:31.704Z,39.63
2018-11-21T15:02:01.590Z,38.57
2018-11-21T15:04:31.603Z,38.30
2018-11-21T15:07:01.243Z,44.20
2018-11-21T15:09:30.913Z,50.50
2018-11-21T15:12:00.569Z,45.80
2018-11-21T15:14:30.199Z,45.50
2018-11-21T15:16:59.927Z,47.67
2018-11-21T15:19:29.619Z,48.40
2018-11-21T15:21:59.189Z,42.77
2018-11-21T15:24:28.782Z,42.73
2018-11-21T15:26:58.448Z,46.10
2018-11-21T15:29:28.106Z,46.73
2018-11-21T15:31:57.792Z,43.80
2018-11-21T15:34:27.599Z,43.27
2018-11-21T15:36:57.290Z,48.00
2018-11-21T15:39:27.075Z,46.43
2018-11-21T15:41:56.722Z,47.30
2018-11-21T15:44:26.381Z,42.83
2018-11-21T15:46:56.111Z,47.43
2018-11-21T15:49:25.964Z,44.27
2018-11-21T15:52:01.283Z,51.40
2018-11-21T15:54:25.300Z,47.53
2018-11-21T15:56:54.941Z,46.07
2018-11-21T15:59:24.549Z,48.07
2018-11-21T16:01:54.270Z,45.23
2018-11-21T16:04:24.272Z,53.90
